sensor_id;sensor_type;location;lat;lon;timestamp;pressure;altitude;pressure_sealevel;temperature;humidity
9307;BME280;4691;47.612;7.610;2023-08-01T00:00:08;97940.94;;;22.07;100.00
9307;BME280;4691;47.612;7.610;2023-08-01T00:02:34;97939.88;;;22.08;100.00
9307;BME280;4691;47.612;7.610;2023-08-01T00:04:59;97935.69;;;22.06;100.00
9307;BME280;4691;47.612;7.610;2023-08-01T00:07:27;97926.50;;;22.07;100.00
9307;BME280;4691;47.612;7.610;2023-08-01T00:09:52;97920.44;;;22.05;100.00
9307;BME280;4691;47.612;7.610;2023-08-01T00:12:18;97919.81;;;22.03;100.00
9307;BME280;4691;47.612;7.610;2023-08-01T00:14:43;97925.03;;;22.04;100.00
9307;BME280;4691;47.612;7.610;2023-08-01T00:17:08;97923.34;;;22.03;100.00
9307;BME280;4691;47.612;7.610;2023-08-01T00:19:33;97913.53;;;22.02;100.00
9307;BME280;4691;47.612;7.610;2023-08-01T00:21:59;97916.44;;;22.01;100.00
9307;BME280;4691;47.612;7.610;2023-08-01T00:24:24;97913.97;;;21.99;100.00
9307;BME280;4691;47.612;7.610;2023-08-01T00:26:49;97904.75;;;22.00;100.00
9307;BME280;4691;47.612;7.610;2023-08-01T00:29:15;97899.09;;;22.02;100.00
9307;BME280;4691;47.612;7.610;2023-08-01T00:31:40;97900.94;;;22.01;100.00
9307;BME280;4691;47.612;7.610;2023-08-01T00:34:05;97902.84;;;22.01;100.00
9307;BME280;4691;47.612;7.610;2023-08-01T00:36:30;97895.09;;;22.04;100.00
9307;BME280;4691;47.612;7.610;2023-08-01T00:38:56;97896.94;;;22.10;100.00
9307;BME280;4691;47.612;7.610;2023-08-01T00:41:21;97890.44;;;22.11;100.00
9307;BME280;4691;47.612;7.610;2023-08-01T00:43:46;97887.09;;;22.16;100.00
9307;BME280;4691;47.612;7.610;2023-08-01T00:46:12;97894.63;;;22.21;100.00
9307;BME280;4691;47.612;7.610;2023-08-01T00:48:37;97894.63;;;22.21;100.00
9307;BME280;4691;47.612;7.610;2023-08-01T00:51:04;97892.75;;;22.21;100.00
9307;BME280;4691;47.612;7.610;2023-08-01T00:53:30;97883.31;;;22.24;100.00
9307;BME280;4691;47.612;7.610;2023-08-01T00:55:57;97881.22;;;22.26;100.00
9307;BME280;4691;47.612;7.610;2023-08-01T00:58:23;97885.16;;;22.30;100.00
9307;BME280;4691;47.612;7.610;2023-08-01T01:00:48;97876.16;;;22.29;100.00
9307;BME280;4691;47.612;7.610;2023-08-01T01:03:14;97875.72;;;22.32;100.00
9307;BME280;4691;47.612;7.610;2023-08-01T01:05:43;97905.91;;;22.31;100.00
9307;BME280;4691;47.612;7.610;2023-08-01T01:08:12;97922.28;;;22.11;100.00
9307;BME280;4691;47.612;7.610;2023-08-01T01:13:59;97910.53;;;21.45;100.00
9307;BME280;4691;47.612;7.610;2023-08-01T01:16:24;97933.28;;;21.11;100.00
9307;BME280;4691;47.612;7.610;2023-08-01T01:18:50;97916.56;;;21.14;100.00
9307;BME280;4691;47.612;7.610;2023-08-01T01:21:15;97921.16;;;21.14;100.00
9307;BME280;4691;47.612;7.610;2023-08-01T01:23:42;97915.72;;;21.14;100.00
9307;BME280;4691;47.612;7.610;2023-08-01T01:26:08;97910.94;;;21.22;100.00
9307;BME280;4691;47.612;7.610;2023-08-01T01:28:35;97911.97;;;21.21;100.00
9307;BME280;4691;47.612;7.610;2023-08-01T01:31:01;97912.81;;;21.15;100.00
9307;BME280;4691;47.612;7.610;2023-08-01T01:33:27;97922.63;;;21.16;100.00
9307;BME280;4691;47.612;7.610;2023-08-01T01:35:54;97922.00;;;21.14;100.00
9307;BME280;4691;47.612;7.610;2023-08-01T01:38:19;97920.75;;;21.10;100.00
9307;BME280;4691;47.612;7.610;2023-08-01T01:40:44;97914.28;;;21.11;100.00
9307;BME280;4691;47.612;7.610;2023-08-01T01:43:09;97926.19;;;21.10;100.00
9307;BME280;4691;47.612;7.610;2023-08-01T01:45:35;97929.53;;;21.05;100.00
9307;BME280;4691;47.612;7.610;2023-08-01T01:48:00;97929.72;;;21.04;100.00
9307;BME280;4691;47.612;7.610;2023-08-01T01:50:25;97932.88;;;21.01;100.00
9307;BME280;4691;47.612;7.610;2023-08-01T01:52:51;97913.22;;;20.99;100.00
9307;BME280;4691;47.612;7.610;2023-08-01T01:55:16;97914.91;;;21.00;100.00
9307;BME280;4691;47.612;7.610;2023-08-01T01:57:41;97927.84;;;20.98;100.00
9307;BME280;4691;47.612;7.610;2023-08-01T02:00:07;97911.97;;;20.95;100.00
9307;BME280;4691;47.612;7.610;2023-08-01T02:02:36;97925.38;;;20.96;100.00
9307;BME280;4691;47.612;7.610;2023-08-01T02:05:01;97935.38;;;20.96;100.00
9307;BME280;4691;47.612;7.610;2023-08-01T02:07:28;97943.31;;;20.91;100.00
9307;BME280;4691;47.612;7.610;2023-08-01T02:09:54;97941.00;;;20.87;100.00
9307;BME280;4691;47.612;7.610;2023-08-01T02:12:19;97942.06;;;20.86;100.00
9307;BME280;4691;47.612;7.610;2023-08-01T02:14:44;97942.69;;;20.88;100.00
9307;BME280;4691;47.612;7.610;2023-08-01T02:19:31;97933.09;;;20.86;100.00
9307;BME280;4691;47.612;7.610;2023-08-01T02:21:57;97941.63;;;20.83;100.00
9307;BME280;4691;47.612;7.610;2023-08-01T02:24:23;97934.53;;;20.82;100.00
9307;BME280;4691;47.612;7.610;2023-08-01T02:26:49;97943.72;;;20.81;100.00
9307;BME280;4691;47.612;7.610;2023-08-01T02:29:15;97947.91;;;20.77;100.00
9307;BME280;4691;47.612;7.610;2023-08-01T02:31:40;97948.31;;;20.80;100.00
9307;BME280;4691;47.612;7.610;2023-08-01T02:34:05;97945.38;;;20.75;100.00
9307;BME280;4691;47.612;7.610;2023-08-01T02:36:30;97943.06;;;20.72;100.00
9307;BME280;4691;47.612;7.610;2023-08-01T02:38:56;97938.69;;;20.71;100.00
9307;BME280;4691;47.612;7.610;2023-08-01T02:41:21;97946.41;;;20.67;100.00
9307;BME280;4691;47.612;7.610;2023-08-01T02:43:46;97946.63;;;20.66;100.00
9307;BME280;4691;47.612;7.610;2023-08-01T02:46:11;97951.41;;;20.64;100.00
9307;BME280;4691;47.612;7.610;2023-08-01T02:48:37;97948.69;;;20.64;100.00
9307;BME280;4691;47.612;7.610;2023-08-01T02:51:02;97941.19;;;20.66;100.00
9307;BME280;4691;47.612;7.610;2023-08-01T02:53:27;97937.41;;;20.67;100.00
9307;BME280;4691;47.612;7.610;2023-08-01T02:55:53;97941.81;;;20.61;100.00
9307;BME280;4691;47.612;7.610;2023-08-01T02:58:18;97949.09;;;20.54;100.00
9307;BME280;4691;47.612;7.610;2023-08-01T03:00:43;97954.06;;;20.51;100.00
9307;BME280;4691;47.612;7.610;2023-08-01T03:03:09;97964.28;;;20.49;100.00
9307;BME280;4691;47.612;7.610;2023-08-01T03:05:36;97959.06;;;20.47;100.00
9307;BME280;4691;47.612;7.610;2023-08-01T03:08:02;97969.31;;;20.45;100.00
9307;BME280;4691;47.612;7.610;2023-08-01T03:10:28;97961.34;;;20.43;100.00
9307;BME280;4691;47.612;7.610;2023-08-01T03:12:53;97962.41;;;20.42;100.00
9307;BME280;4691;47.612;7.610;2023-08-01T03:15:18;97962.41;;;20.42;100.00
9307;BME280;4691;47.612;7.610;2023-08-01T03:17:43;97973.25;;;20.42;100.00
9307;BME280;4691;47.612;7.610;2023-08-01T03:20:09;97964.47;;;20.40;100.00
9307;BME280;4691;47.612;7.610;2023-08-01T03:22:38;97966.13;;;20.41;100.00
9307;BME280;4691;47.612;7.610;2023-08-01T03:25:05;97966.13;;;20.41;100.00
9307;BME280;4691;47.612;7.610;2023-08-01T03:27:33;97955.28;;;20.41;100.00
9307;BME280;4691;47.612;7.610;2023-08-01T03:29:58;97965.31;;;20.41;100.00
9307;BME280;4691;47.612;7.610;2023-08-01T03:32:23;97959.09;;;20.54;100.00
9307;BME280;4691;47.612;7.610;2023-08-01T03:34:49;97961.41;;;20.57;100.00
9307;BME280;4691;47.612;7.610;2023-08-01T03:37:14;97949.72;;;20.56;100.00
9307;BME280;4691;47.612;7.610;2023-08-01T03:39:39;97950.13;;;20.60;100.00
9307;BME280;4691;47.612;7.610;2023-08-01T03:42:05;97953.31;;;20.63;100.00
9307;BME280;4691;47.612;7.610;2023-08-01T03:44:30;97948.31;;;20.74;100.00
9307;BME280;4691;47.612;7.610;2023-08-01T03:46:57;97942.88;;;20.74;100.00
9307;BME280;4691;47.612;7.610;2023-08-01T03:49:22;97956.88;;;20.71;100.00
9307;BME280;4691;47.612;7.610;2023-08-01T03:51:47;97958.13;;;20.68;100.00
9307;BME280;4691;47.612;7.610;2023-08-01T03:54:13;97947.88;;;20.63;100.00
9307;BME280;4691;47.612;7.610;2023-08-01T03:56:38;97956.63;;;20.59;100.00
9307;BME280;4691;47.612;7.610;2023-08-01T03:59:04;97962.84;;;20.53;100.00
9307;BME280;4691;47.612;7.610;2023-08-01T04:01:30;97941.97;;;20.53;100.00
9307;BME280;4691;47.612;7.610;2023-08-01T04:03:55;97949.66;;;20.50;100.00
9307;BME280;4691;47.612;7.610;2023-08-01T04:06:20;97933.38;;;20.50;100.00
9307;BME280;4691;47.612;7.610;2023-08-01T04:08:46;97918.19;;;20.55;100.00
9307;BME280;4691;47.612;7.610;2023-08-01T04:11:11;97913.97;;;20.53;100.00
9307;BME280;4691;47.612;7.610;2023-08-01T04:13:36;97918.13;;;20.49;100.00
9307;BME280;4691;47.612;7.610;2023-08-01T04:16:02;97913.75;;;20.48;100.00
9307;BME280;4691;47.612;7.610;2023-08-01T04:18:27;97920.63;;;20.43;100.00
9307;BME280;4691;47.612;7.610;2023-08-01T04:20:52;97928.53;;;20.38;100.00
9307;BME280;4691;47.612;7.610;2023-08-01T04:23:18;97917.47;;;20.33;100.00
9307;BME280;4691;47.612;7.610;2023-08-01T04:25:43;97922.06;;;20.39;100.00
9307;BME280;4691;47.612;7.610;2023-08-01T04:28:08;97902.66;;;20.42;100.00
9307;BME280;4691;47.612;7.610;2023-08-01T04:30:34;97892.25;;;20.53;100.00
9307;BME280;4691;47.612;7.610;2023-08-01T04:32:59;97893.06;;;20.47;100.00
9307;BME280;4691;47.612;7.610;2023-08-01T04:35:24;97897.88;;;20.51;100.00
9307;BME280;4691;47.612;7.610;2023-08-01T04:37:50;97892.03;;;20.48;100.00
9307;BME280;4691;47.612;7.610;2023-08-01T04:40:15;97901.00;;;20.48;100.00
9307;BME280;4691;47.612;7.610;2023-08-01T04:42:40;97902.72;;;20.56;100.00
9307;BME280;4691;47.612;7.610;2023-08-01T04:45:06;97899.75;;;20.51;100.00
9307;BME280;4691;47.612;7.610;2023-08-01T04:47:32;97910.19;;;20.47;100.00
9307;BME280;4691;47.612;7.610;2023-08-01T04:49:57;97943.16;;;20.37;100.00
9307;BME280;4691;47.612;7.610;2023-08-01T04:52:23;97958.25;;;20.05;100.00
9307;BME280;4691;47.612;7.610;2023-08-01T04:54:48;97968.00;;;19.65;100.00
9307;BME280;4691;47.612;7.610;2023-08-01T04:57:13;98008.94;;;19.20;100.00
9307;BME280;4691;47.612;7.610;2023-08-01T04:59:38;98020.09;;;18.74;100.00
9307;BME280;4691;47.612;7.610;2023-08-01T05:02:04;98058.81;;;18.23;100.00
9307;BME280;4691;47.612;7.610;2023-08-01T05:04:29;98083.78;;;17.81;100.00
9307;BME280;4691;47.612;7.610;2023-08-01T05:06:54;98103.66;;;17.65;100.00
9307;BME280;4691;47.612;7.610;2023-08-01T05:09:20;98098.31;;;17.57;100.00
9307;BME280;4691;47.612;7.610;2023-08-01T05:11:45;98094.38;;;17.45;100.00
9307;BME280;4691;47.612;7.610;2023-08-01T05:14:10;98082.31;;;17.32;100.00
9307;BME280;4691;47.612;7.610;2023-08-01T05:16:35;98056.56;;;17.22;100.00
9307;BME280;4691;47.612;7.610;2023-08-01T05:19:01;98053.28;;;17.26;100.00
9307;BME280;4691;47.612;7.610;2023-08-01T05:21:26;98044.94;;;17.36;100.00
9307;BME280;4691;47.612;7.610;2023-08-01T05:23:51;98047.34;;;17.31;100.00
9307;BME280;4691;47.612;7.610;2023-08-01T05:26:17;98032.09;;;17.38;100.00
9307;BME280;4691;47.612;7.610;2023-08-01T05:28:42;97999.66;;;17.38;100.00
9307;BME280;4691;47.612;7.610;2023-08-01T05:31:07;97990.22;;;17.34;100.00
9307;BME280;4691;47.612;7.610;2023-08-01T05:33:33;97985.03;;;17.32;100.00
9307;BME280;4691;47.612;7.610;2023-08-01T05:35:58;97993.44;;;17.37;100.00
9307;BME280;4691;47.612;7.610;2023-08-01T05:38:23;97960.72;;;17.32;100.00
9307;BME280;4691;47.612;7.610;2023-08-01T05:40:48;97956.16;;;17.33;100.00
9307;BME280;4691;47.612;7.610;2023-08-01T05:43:14;97949.25;;;17.30;100.00
9307;BME280;4691;47.612;7.610;2023-08-01T05:45:39;97950.56;;;17.34;100.00
9307;BME280;4691;47.612;7.610;2023-08-01T05:48:05;97959.41;;;17.43;100.00
9307;BME280;4691;47.612;7.610;2023-08-01T05:50:30;97926.72;;;17.53;100.00
9307;BME280;4691;47.612;7.610;2023-08-01T05:52:55;97908.63;;;17.38;100.00
9307;BME280;4691;47.612;7.610;2023-08-01T05:55:21;97877.63;;;17.34;100.00
9307;BME280;4691;47.612;7.610;2023-08-01T05:57:46;97869.50;;;17.34;100.00
9307;BME280;4691;47.612;7.610;2023-08-01T06:00:12;97869.59;;;17.41;100.00
9307;BME280;4691;47.612;7.610;2023-08-01T06:02:37;97850.13;;;17.46;100.00
9307;BME280;4691;47.612;7.610;2023-08-01T06:05:03;97879.03;;;17.60;100.00
9307;BME280;4691;47.612;7.610;2023-08-01T06:07:28;97881.44;;;17.55;100.00
9307;BME280;4691;47.612;7.610;2023-08-01T06:09:54;97879.19;;;17.58;100.00
9307;BME280;4691;47.612;7.610;2023-08-01T06:12:19;97853.66;;;17.61;100.00
9307;BME280;4691;47.612;7.610;2023-08-01T06:14:45;97715.78;;;17.39;100.00
9307;BME280;4691;47.612;7.610;2023-08-01T06:17:11;97716.66;;;17.47;100.00
9307;BME280;4691;47.612;7.610;2023-08-01T06:19:36;97715.94;;;17.53;100.00
9307;BME280;4691;47.612;7.610;2023-08-01T06:22:01;97713.53;;;17.64;100.00
9307;BME280;4691;47.612;7.610;2023-08-01T06:24:27;97713.19;;;17.68;100.00
9307;BME280;4691;47.612;7.610;2023-08-01T06:26:52;97697.84;;;17.75;100.00
9307;BME280;4691;47.612;7.610;2023-08-01T06:29:17;97714.19;;;17.81;100.00
9307;BME280;4691;47.612;7.610;2023-08-01T06:31:43;97723.97;;;17.82;100.00
9307;BME280;4691;47.612;7.610;2023-08-01T06:34:08;97724.22;;;17.88;100.00
9307;BME280;4691;47.612;7.610;2023-08-01T06:36:34;97721.50;;;17.88;100.00
9307;BME280;4691;47.612;7.610;2023-08-01T06:39:00;97715.94;;;17.89;100.00
9307;BME280;4691;47.612;7.610;2023-08-01T06:48:09;97753.47;;;17.99;100.00
9307;BME280;4691;47.612;7.610;2023-08-01T06:50:34;97737.63;;;17.96;100.00
9307;BME280;4691;47.612;7.610;2023-08-01T06:53:00;97713.16;;;18.04;100.00
9307;BME280;4691;47.612;7.610;2023-08-01T06:55:26;97714.00;;;18.04;100.00
9307;BME280;4691;47.612;7.610;2023-08-01T06:57:51;97684.06;;;18.06;100.00
9307;BME280;4691;47.612;7.610;2023-08-01T07:00:17;97660.41;;;18.15;100.00
9307;BME280;4691;47.612;7.610;2023-08-01T07:02:42;97665.47;;;18.24;100.00
9307;BME280;4691;47.612;7.610;2023-08-01T07:05:08;97605.78;;;18.33;100.00
9307;BME280;4691;47.612;7.610;2023-08-01T07:07:33;97598.09;;;18.30;100.00
9307;BME280;4691;47.612;7.610;2023-08-01T07:09:58;97589.31;;;18.27;100.00
9307;BME280;4691;47.612;7.610;2023-08-01T07:12:24;97571.19;;;18.21;100.00
9307;BME280;4691;47.612;7.610;2023-08-01T07:14:49;97559.31;;;18.22;100.00
9307;BME280;4691;47.612;7.610;2023-08-01T07:17:14;97560.16;;;18.23;100.00
9307;BME280;4691;47.612;7.610;2023-08-01T07:19:39;97544.25;;;18.13;100.00
9307;BME280;4691;47.612;7.610;2023-08-01T07:22:05;97532.19;;;18.09;100.00
9307;BME280;4691;47.612;7.610;2023-08-01T07:24:30;97530.72;;;18.06;100.00
9307;BME280;4691;47.612;7.610;2023-08-01T07:26:55;97502.13;;;17.91;100.00
9307;BME280;4691;47.612;7.610;2023-08-01T07:29:21;97524.63;;;17.98;100.00
9307;BME280;4691;47.612;7.610;2023-08-01T07:31:46;97553.50;;;17.91;100.00
9307;BME280;4691;47.612;7.610;2023-08-01T07:34:11;97605.38;;;17.79;100.00
9307;BME280;4691;47.612;7.610;2023-08-01T07:36:37;97642.84;;;17.61;100.00
9307;BME280;4691;47.612;7.610;2023-08-01T07:39:02;97667.28;;;17.53;100.00
9307;BME280;4691;47.612;7.610;2023-08-01T07:41:28;97685.94;;;17.48;100.00
9307;BME280;4691;47.612;7.610;2023-08-01T07:43:53;97690.41;;;17.40;100.00
9307;BME280;4691;47.612;7.610;2023-08-01T07:46:19;97689.66;;;17.47;100.00
9307;BME280;4691;47.612;7.610;2023-08-01T07:48:44;97682.94;;;17.57;100.00
9307;BME280;4691;47.612;7.610;2023-08-01T07:51:09;97684.34;;;17.53;100.00
9307;BME280;4691;47.612;7.610;2023-08-01T07:53:36;97693.00;;;17.49;100.00
9307;BME280;4691;47.612;7.610;2023-08-01T07:56:01;97711.66;;;17.44;100.00
9307;BME280;4691;47.612;7.610;2023-08-01T07:58:32;97712.13;;;17.47;100.00
9307;BME280;4691;47.612;7.610;2023-08-01T08:01:03;97713.97;;;17.47;100.00
9307;BME280;4691;47.612;7.610;2023-08-01T08:03:28;97708.28;;;17.41;100.00
9307;BME280;4691;47.612;7.610;2023-08-01T08:05:54;97703.81;;;17.49;100.00
9307;BME280;4691;47.612;7.610;2023-08-01T08:08:19;97703.06;;;17.55;100.00
9307;BME280;4691;47.612;7.610;2023-08-01T08:10:44;97713.94;;;17.61;100.00
9307;BME280;4691;47.612;7.610;2023-08-01T08:13:09;97709.44;;;17.47;100.00
9307;BME280;4691;47.612;7.610;2023-08-01T08:15:35;97716.66;;;17.47;100.00
9307;BME280;4691;47.612;7.610;2023-08-01T08:18:01;97717.16;;;17.50;100.00
9307;BME280;4691;47.612;7.610;2023-08-01T08:20:29;97714.63;;;17.49;100.00
9307;BME280;4691;47.612;7.610;2023-08-01T08:22:54;97726.34;;;17.56;100.00
9307;BME280;4691;47.612;7.610;2023-08-01T08:25:20;97715.41;;;17.64;100.00
9307;BME280;4691;47.612;7.610;2023-08-01T08:27:45;97705.25;;;17.66;100.00
9307;BME280;4691;47.612;7.610;2023-08-01T08:30:11;97716.25;;;17.79;100.00
9307;BME280;4691;47.612;7.610;2023-08-01T08:32:36;97713.63;;;17.86;100.00
9307;BME280;4691;47.612;7.610;2023-08-01T08:35:02;97728.78;;;17.87;100.00
9307;BME280;4691;47.612;7.610;2023-08-01T08:37:27;97722.63;;;17.93;100.00
9307;BME280;4691;47.612;7.610;2023-08-01T08:39:52;97717.47;;;17.98;100.00
9307;BME280;4691;47.612;7.610;2023-08-01T08:42:18;97719.97;;;18.00;100.00
9307;BME280;4691;47.612;7.610;2023-08-01T08:44:45;97724.66;;;18.13;100.00
9307;BME280;4691;47.612;7.610;2023-08-01T08:47:16;97736.84;;;18.23;100.00
9307;BME280;4691;47.612;7.610;2023-08-01T08:49:43;97744.69;;;18.40;100.00
9307;BME280;4691;47.612;7.610;2023-08-01T08:52:10;97742.28;;;18.52;100.00
9307;BME280;4691;47.612;7.610;2023-08-01T08:54:36;97761.94;;;18.60;100.00
9307;BME280;4691;47.612;7.610;2023-08-01T08:57:05;97759.50;;;18.72;100.00
9307;BME280;4691;47.612;7.610;2023-08-01T08:59:32;97766.91;;;18.85;100.00
9307;BME280;4691;47.612;7.610;2023-08-01T09:01:57;97777.59;;;18.93;100.00
9307;BME280;4691;47.612;7.610;2023-08-01T09:04:22;97786.19;;;19.03;100.00
9307;BME280;4691;47.612;7.610;2023-08-01T09:06:55;97804.53;;;19.36;100.00
9307;BME280;4691;47.612;7.610;2023-08-01T09:09:20;97806.28;;;19.15;100.00
9307;BME280;4691;47.612;7.610;2023-08-01T09:11:49;97818.75;;;19.10;100.00
9307;BME280;4691;47.612;7.610;2023-08-01T09:14:15;97816.13;;;19.17;100.00
9307;BME280;4691;47.612;7.610;2023-08-01T09:16:41;97815.63;;;19.06;100.00
9307;BME280;4691;47.612;7.610;2023-08-01T09:19:07;97820.16;;;18.99;100.00
9307;BME280;4691;47.612;7.610;2023-08-01T09:21:34;97833.78;;;18.84;100.00
9307;BME280;4691;47.612;7.610;2023-08-01T09:26:35;97834.34;;;19.01;100.00
9307;BME280;4691;47.612;7.610;2023-08-01T09:29:00;97836.00;;;19.02;100.00
9307;BME280;4691;47.612;7.610;2023-08-01T09:31:28;97850.03;;;19.12;100.00
9307;BME280;4691;47.612;7.610;2023-08-01T09:33:53;97840.34;;;19.25;100.00
9307;BME280;4691;47.612;7.610;2023-08-01T09:36:23;97848.38;;;19.46;100.00
9307;BME280;4691;47.612;7.610;2023-08-01T09:38:49;97838.50;;;19.67;100.00
9307;BME280;4691;47.612;7.610;2023-08-01T09:41:18;97854.03;;;19.86;100.00
9307;BME280;4691;47.612;7.610;2023-08-01T09:43:45;97849.88;;;19.90;100.00
9307;BME280;4691;47.612;7.610;2023-08-01T09:46:11;97855.09;;;19.92;100.00
9307;BME280;4691;47.612;7.610;2023-08-01T09:48:37;97847.38;;;19.95;100.00
9307;BME280;4691;47.612;7.610;2023-08-01T09:51:10;97850.41;;;20.20;100.00
9307;BME280;4691;47.612;7.610;2023-08-01T09:53:46;97840.41;;;20.34;100.00
9307;BME280;4691;47.612;7.610;2023-08-01T09:56:14;97839.59;;;20.47;100.00
9307;BME280;4691;47.612;7.610;2023-08-01T09:58:42;97826.66;;;20.42;100.00
9307;BME280;4691;47.612;7.610;2023-08-01T10:01:08;97807.03;;;20.54;100.00
9307;BME280;4691;47.612;7.610;2023-08-01T10:03:33;97841.94;;;20.57;100.00
9307;BME280;4691;47.612;7.610;2023-08-01T10:05:59;97869.31;;;20.55;100.00
9307;BME280;4691;47.612;7.610;2023-08-01T10:08:25;97855.75;;;20.69;100.00
9307;BME280;4691;47.612;7.610;2023-08-01T10:10:52;97851.34;;;20.61;100.00
9307;BME280;4691;47.612;7.610;2023-08-01T10:13:23;97855.09;;;20.60;100.00
9307;BME280;4691;47.612;7.610;2023-08-01T10:15:50;97844.88;;;20.62;100.00
9307;BME280;4691;47.612;7.610;2023-08-01T10:18:16;97848.03;;;20.65;100.00
9307;BME280;4691;47.612;7.610;2023-08-01T10:20:42;97857.59;;;20.55;100.00
9307;BME280;4691;47.612;7.610;2023-08-01T10:23:08;97860.47;;;20.47;100.00
9307;BME280;4691;47.612;7.610;2023-08-01T10:25:34;97869.25;;;20.49;100.00
9307;BME280;4691;47.612;7.610;2023-08-01T10:28:00;97865.50;;;20.43;100.00
9307;BME280;4691;47.612;7.610;2023-08-01T10:30:26;97875.53;;;20.42;100.00
9307;BME280;4691;47.612;7.610;2023-08-01T10:32:55;97892.19;;;20.33;100.00
9307;BME280;4691;47.612;7.610;2023-08-01T10:35:32;97917.97;;;20.09;100.00
9307;BME280;4691;47.612;7.610;2023-08-01T10:38:04;97928.81;;;20.02;100.00
9307;BME280;4691;47.612;7.610;2023-08-01T10:40:37;97926.75;;;20.11;100.00
9307;BME280;4691;47.612;7.610;2023-08-01T10:43:02;97936.47;;;20.33;100.00
9307;BME280;4691;47.612;7.610;2023-08-01T10:45:28;97923.56;;;20.49;100.00
9307;BME280;4691;47.612;7.610;2023-08-01T10:47:54;97911.50;;;20.58;100.00
9307;BME280;4691;47.612;7.610;2023-08-01T10:50:30;97911.34;;;20.93;100.00
9307;BME280;4691;47.612;7.610;2023-08-01T10:53:02;97897.34;;;21.22;100.00
9307;BME280;4691;47.612;7.610;2023-08-01T10:55:38;97882.63;;;21.70;100.00
9307;BME280;4691;47.612;7.610;2023-08-01T10:58:04;97877.72;;;21.99;100.00
9307;BME280;4691;47.612;7.610;2023-08-01T11:00:29;97880.56;;;21.72;100.00
9307;BME280;4691;47.612;7.610;2023-08-01T11:02:54;97869.88;;;21.70;100.00
9307;BME280;4691;47.612;7.610;2023-08-01T11:05:20;97867.03;;;21.39;100.00
9307;BME280;4691;47.612;7.610;2023-08-01T11:07:59;97866.16;;;21.51;100.00
9307;BME280;4691;47.612;7.610;2023-08-01T11:10:26;97887.53;;;21.48;100.00
9307;BME280;4691;47.612;7.610;2023-08-01T11:12:52;97882.63;;;21.70;100.00
9307;BME280;4691;47.612;7.610;2023-08-01T11:15:19;97882.41;;;21.78;100.00
9307;BME280;4691;47.612;7.610;2023-08-01T11:17:52;97891.19;;;21.87;100.00
9307;BME280;4691;47.612;7.610;2023-08-01T11:20:19;97891.38;;;21.85;100.00
9307;BME280;4691;47.612;7.610;2023-08-01T11:26:32;97880.34;;;21.73;100.00
9307;BME280;4691;47.612;7.610;2023-08-01T11:29:01;97880.06;;;21.95;100.00
9307;BME280;4691;47.612;7.610;2023-08-01T11:31:27;97875.00;;;21.99;100.00
9307;BME280;4691;47.612;7.610;2023-08-01T11:33:59;97883.06;;;21.73;100.00
9307;BME280;4691;47.612;7.610;2023-08-01T11:36:26;97873.88;;;21.61;100.00
9307;BME280;4691;47.612;7.610;2023-08-01T11:38:52;97871.59;;;21.58;100.00
9307;BME280;4691;47.612;7.610;2023-08-01T11:41:18;97874.75;;;21.42;100.00
9307;BME280;4691;47.612;7.610;2023-08-01T11:43:43;97876.22;;;21.38;100.00
9307;BME280;4691;47.612;7.610;2023-08-01T11:46:09;97872.47;;;21.39;100.00
9307;BME280;4691;47.612;7.610;2023-08-01T11:48:35;97881.25;;;21.41;100.00
9307;BME280;4691;47.612;7.610;2023-08-01T11:51:01;97879.75;;;21.31;100.00
9307;BME280;4691;47.612;7.610;2023-08-01T11:53:28;97884.31;;;20.51;100.00
9307;BME280;4691;47.612;7.610;2023-08-01T11:55:53;97923.13;;;19.90;100.00
9307;BME280;4691;47.612;7.610;2023-08-01T11:58:34;97935.00;;;19.89;100.00
9307;BME280;4691;47.612;7.610;2023-08-01T12:01:08;97921.75;;;20.08;100.00
9307;BME280;4691;47.612;7.610;2023-08-01T12:03:47;97936.88;;;20.30;100.00
9307;BME280;4691;47.612;7.610;2023-08-01T12:06:14;97947.34;;;20.40;100.00
9307;BME280;4691;47.612;7.610;2023-08-01T12:08:41;97941.75;;;19.65;100.00
9307;BME280;4691;47.612;7.610;2023-08-01T12:11:24;97998.69;;;18.94;100.00
9307;BME280;4691;47.612;7.610;2023-08-01T12:14:09;98042.88;;;18.80;100.00
9307;BME280;4691;47.612;7.610;2023-08-01T12:16:35;98029.56;;;18.78;100.00
9307;BME280;4691;47.612;7.610;2023-08-01T12:19:00;98014.22;;;18.70;100.00
9307;BME280;4691;47.612;7.610;2023-08-01T12:21:26;97994.88;;;18.88;100.00
9307;BME280;4691;47.612;7.610;2023-08-01T12:23:51;97980.53;;;19.38;100.00
9307;BME280;4691;47.612;7.610;2023-08-01T12:26:16;97977.28;;;19.49;100.00
9307;BME280;4691;47.612;7.610;2023-08-01T12:28:42;97978.47;;;19.40;100.00
9307;BME280;4691;47.612;7.610;2023-08-01T12:31:07;97978.06;;;19.43;100.00
9307;BME280;4691;47.612;7.610;2023-08-01T12:33:33;97979.06;;;19.63;100.00
9307;BME280;4691;47.612;7.610;2023-08-01T12:35:59;97986.47;;;19.76;100.00
9307;BME280;4691;47.612;7.610;2023-08-01T12:38:25;97984.31;;;19.99;100.00
9307;BME280;4691;47.612;7.610;2023-08-01T12:40:50;97978.03;;;22.02;100.00
9307;BME280;4691;47.612;7.610;2023-08-01T12:43:16;97932.66;;;22.41;100.00
9307;BME280;4691;47.612;7.610;2023-08-01T12:45:42;97929.97;;;21.56;100.00
9307;BME280;4691;47.612;7.610;2023-08-01T12:48:07;97947.91;;;20.83;100.00
9307;BME280;4691;47.612;7.610;2023-08-01T12:50:33;97969.44;;;20.37;100.00
9307;BME280;4691;47.612;7.610;2023-08-01T12:52:58;97980.88;;;19.84;100.00
9307;BME280;4691;47.612;7.610;2023-08-01T12:55:23;97991.97;;;19.61;100.00
9307;BME280;4691;47.612;7.610;2023-08-01T12:57:48;97995.00;;;19.51;100.00
9307;BME280;4691;47.612;7.610;2023-08-01T13:00:14;97994.25;;;19.36;100.00
9307;BME280;4691;47.612;7.610;2023-08-01T13:02:39;97989.63;;;19.30;100.00
9307;BME280;4691;47.612;7.610;2023-08-01T13:05:05;97986.31;;;19.84;100.00
9307;BME280;4691;47.612;7.610;2023-08-01T13:07:31;97983.47;;;21.02;100.00
9307;BME280;4691;47.612;7.610;2023-08-01T13:09:58;97975.59;;;21.53;100.00
9307;BME280;4691;47.612;7.610;2023-08-01T13:12:23;97953.59;;;21.62;100.00
9307;BME280;4691;47.612;7.610;2023-08-01T13:14:49;97940.31;;;21.99;100.00
9307;BME280;4691;47.612;7.610;2023-08-01T13:17:14;97930.66;;;22.23;100.00
9307;BME280;4691;47.612;7.610;2023-08-01T13:19:39;97929.31;;;22.77;100.00
9307;BME280;4691;47.612;7.610;2023-08-01T13:22:05;97925.00;;;22.63;100.00